createdAt,value
2017-11-23T00:02:04.621Z,7.40
2017-11-23T00:04:32.110Z,6.90
2017-11-23T00:06:59.554Z,6.37
2017-11-23T00:09:27.040Z,11.20
2017-11-23T00:11:54.491Z,6.20
2017-11-23T00:14:21.948Z,6.50
2017-11-23T00:16:49.396Z,6.53
2017-11-23T00:19:16.851Z,7.27
2017-11-23T00:21:44.286Z,6.07
2017-11-23T00:24:11.895Z,6.13
2017-11-23T00:26:39.331Z,9.80
2017-11-23T00:29:06.778Z,7.67
2017-11-23T00:31:34.212Z,6.47
2017-11-23T00:34:01.680Z,9.53
2017-11-23T00:36:29.147Z,10.17
2017-11-23T00:38:56.716Z,13.43
2017-11-23T00:41:24.151Z,7.80
2017-11-23T00:43:51.581Z,9.13
2017-11-23T00:46:19.079Z,8.00
2017-11-23T00:48:46.520Z,11.60
2017-11-23T00:51:13.979Z,10.47
2017-11-23T00:53:41.445Z,7.43
2017-11-23T00:56:08.904Z,9.07
2017-11-23T00:58:36.330Z,7.30
2017-11-23T01:01:03.781Z,13.07
2017-11-23T01:03:31.210Z,7.73
2017-11-23T01:05:58.739Z,7.50
2017-11-23T01:08:26.193Z,8.70
2017-11-23T01:10:53.659Z,17.40
2017-11-23T01:13:21.117Z,9.13
2017-11-23T01:15:48.581Z,14.00
2017-11-23T01:18:16.130Z,12.40
2017-11-23T01:20:43.585Z,9.47
2017-11-23T01:23:11.045Z,15.37
2017-11-23T01:25:38.545Z,18.67
2017-11-23T01:28:05.978Z,10.20
2017-11-23T01:30:33.411Z,8.80
2017-11-23T01:33:00.886Z,11.63
2017-11-23T01:35:28.335Z,13.70
2017-11-23T01:37:55.782Z,9.67
2017-11-23T01:40:23.230Z,19.47
2017-11-23T01:42:50.699Z,14.50
2017-11-23T01:45:18.245Z,12.60
2017-11-23T01:47:45.715Z,12.83
2017-11-23T01:50:13.260Z,12.20
2017-11-23T01:52:40.715Z,11.20
2017-11-23T01:55:08.143Z,13.13
2017-11-23T01:57:35.628Z,8.50
2017-11-23T02:00:03.071Z,9.70
2017-11-23T02:02:30.542Z,14.73
2017-11-23T02:04:57.979Z,9.80
2017-11-23T02:07:25.448Z,10.30
2017-11-23T02:09:52.891Z,13.40
2017-11-23T02:12:20.351Z,13.17
2017-11-23T02:14:47.779Z,8.43
2017-11-23T02:17:15.209Z,8.90
2017-11-23T02:19:42.665Z,11.57
2017-11-23T02:22:10.096Z,10.20
2017-11-23T02:24:37.552Z,10.77
2017-11-23T02:27:04.990Z,10.83
2017-11-23T02:29:32.463Z,11.47
2017-11-23T02:31:59.906Z,9.23
2017-11-23T02:34:27.368Z,10.67
2017-11-23T02:36:54.815Z,17.00
2017-11-23T02:39:22.271Z,14.07
2017-11-23T02:41:49.715Z,14.13
2017-11-23T02:44:17.171Z,15.23
2017-11-23T02:46:44.598Z,11.57
2017-11-23T02:49:12.060Z,12.20
2017-11-23T02:51:39.572Z,14.00
2017-11-23T02:54:07.016Z,8.80
2017-11-23T02:56:34.475Z,8.57
2017-11-23T02:59:01.907Z,7.40
2017-11-23T03:01:29.370Z,9.10
2017-11-23T03:03:56.811Z,11.80
2017-11-23T03:06:24.274Z,9.93
2017-11-23T03:08:51.767Z,8.70
2017-11-23T03:11:19.227Z,7.67
2017-11-23T03:13:46.660Z,12.13
2017-11-23T03:16:14.131Z,8.40
2017-11-23T03:18:41.580Z,7.97
2017-11-23T03:21:09.036Z,15.63
2017-11-23T03:23:36.471Z,9.90
2017-11-23T03:26:03.934Z,8.87
2017-11-23T03:28:31.415Z,7.70
2017-11-23T03:30:58.853Z,7.60
2017-11-23T03:33:26.302Z,13.40
2017-11-23T03:35:53.747Z,9.97
2017-11-23T03:38:21.233Z,16.03
2017-11-23T03:40:48.672Z,13.30
2017-11-23T03:43:16.146Z,8.13
2017-11-23T03:45:43.613Z,10.50
2017-11-23T03:48:11.083Z,14.30
2017-11-23T03:50:38.526Z,11.23
2017-11-23T03:53:05.984Z,15.20
2017-11-23T03:55:33.416Z,8.27
2017-11-23T03:58:00.867Z,7.17
2017-11-23T04:00:28.305Z,10.97
2017-11-23T04:02:55.789Z,21.27
2017-11-23T04:05:23.226Z,8.53
2017-11-23T04:07:50.689Z,13.40
2017-11-23T04:10:18.126Z,9.67
2017-11-23T04:12:45.578Z,14.23
2017-11-23T04:15:13.090Z,9.53
2017-11-23T04:17:40.588Z,14.50
2017-11-23T04:20:08.022Z,13.37
2017-11-23T04:22:35.454Z,8.20
2017-11-23T04:25:02.912Z,8.70
2017-11-23T04:27:30.362Z,11.63
2017-11-23T04:29:57.827Z,13.50
2017-11-23T04:32:25.259Z,9.20
2017-11-23T04:34:52.730Z,13.13
2017-11-23T04:37:20.200Z,14.10
2017-11-23T04:39:47.668Z,11.23
2017-11-23T04:42:15.111Z,11.30
2017-11-23T04:44:42.573Z,10.03
2017-11-23T04:47:10.013Z,13.10
2017-11-23T04:49:37.474Z,8.50
2017-11-23T04:52:04.910Z,13.30
2017-11-23T04:54:32.400Z,14.50
2017-11-23T04:56:59.934Z,19.27
2017-11-23T04:59:27.379Z,19.63
2017-11-23T05:01:54.847Z,14.77
2017-11-23T05:04:22.291Z,14.50
2017-11-23T05:06:49.777Z,10.93
2017-11-23T05:09:17.209Z,13.80
2017-11-23T05:11:44.671Z,14.90
2017-11-23T05:14:12.107Z,21.97
2017-11-23T05:16:39.567Z,13.67
2017-11-23T05:19:07.008Z,12.30
2017-11-23T05:21:34.472Z,10.63
2017-11-23T05:24:01.934Z,12.90
2017-11-23T05:26:29.405Z,14.03
2017-11-23T05:28:56.837Z,19.00
2017-11-23T05:31:24.265Z,17.33
2017-11-23T05:33:51.795Z,11.10
2017-11-23T05:36:19.228Z,11.23
2017-11-23T05:38:46.690Z,9.03
2017-11-23T05:41:14.124Z,13.57
2017-11-23T05:43:41.573Z,7.50
2017-11-23T05:46:09.020Z,10.17
2017-11-23T05:48:36.560Z,15.00
2017-11-23T05:51:03.991Z,9.30
2017-11-23T05:53:31.625Z,9.20
2017-11-23T05:55:59.085Z,9.67
2017-11-23T05:58:26.520Z,10.07
2017-11-23T06:00:53.975Z,13.10
2017-11-23T06:03:21.405Z,8.07
2017-11-23T06:05:48.854Z,8.70
2017-11-23T06:08:16.287Z,7.23
2017-11-23T06:10:43.755Z,8.43
2017-11-23T06:13:11.224Z,9.07
2017-11-23T06:15:38.676Z,7.67
2017-11-23T06:18:06.116Z,7.63
2017-11-23T06:20:33.586Z,19.77
2017-11-23T06:23:01.017Z,16.07
2017-11-23T06:25:28.470Z,8.90
2017-11-23T06:27:55.907Z,14.87
2017-11-23T06:30:23.409Z,10.10
2017-11-23T06:32:50.837Z,8.60
2017-11-23T06:35:18.273Z,7.90
2017-11-23T06:37:45.769Z,8.73
2017-11-23T06:40:13.228Z,10.00
2017-11-23T06:42:41.466Z,7.77
2017-11-23T06:45:08.935Z,8.23
2017-11-23T06:47:36.392Z,8.13
2017-11-23T06:50:03.862Z,9.47
2017-11-23T06:52:31.392Z,7.60
2017-11-23T06:54:58.831Z,9.70
2017-11-23T06:57:26.279Z,9.03
2017-11-23T06:59:53.806Z,10.00
2017-11-23T07:02:21.262Z,10.93
2017-11-23T07:04:48.743Z,8.27
2017-11-23T07:07:16.199Z,8.37
2017-11-23T07:09:43.649Z,10.47
2017-11-23T07:12:11.129Z,9.87
2017-11-23T07:14:38.574Z,8.30
2017-11-23T07:17:06.010Z,13.90
2017-11-23T07:19:33.555Z,8.50
2017-11-23T07:22:00.996Z,10.03
2017-11-23T07:24:28.442Z,8.17
2017-11-23T07:26:55.874Z,10.27
2017-11-23T07:29:23.355Z,11.03
2017-11-23T07:31:50.802Z,9.60
2017-11-23T07:34:18.295Z,19.23
2017-11-23T07:36:45.722Z,8.90
2017-11-23T07:39:13.170Z,10.90
2017-11-23T07:41:40.599Z,7.33
2017-11-23T07:44:08.055Z,18.73
2017-11-23T07:46:35.570Z,14.43
2017-11-23T07:49:03.038Z,14.37
2017-11-23T07:51:32.020Z,12.57
2017-11-23T07:53:59.538Z,10.73
2017-11-23T07:56:27.031Z,9.90
2017-11-23T07:58:54.487Z,10.40
2017-11-23T08:01:21.943Z,11.60
2017-11-23T08:03:49.379Z,13.90
2017-11-23T08:06:16.838Z,11.00
2017-11-23T08:08:44.271Z,10.70
2017-11-23T08:11:11.738Z,10.73
2017-11-23T08:13:39.182Z,13.03
2017-11-23T08:16:06.699Z,10.33
2017-11-23T08:18:41.803Z,9.17
2017-11-23T08:21:09.281Z,10.27
2017-11-23T08:23:36.726Z,9.50
2017-11-23T08:26:04.177Z,8.33
2017-11-23T08:28:31.651Z,10.63
2017-11-23T08:30:59.206Z,9.67
2017-11-23T08:33:26.659Z,14.13
2017-11-23T08:35:54.133Z,12.17
2017-11-23T08:38:21.622Z,21.57
2017-11-23T08:40:49.072Z,18.13
2017-11-23T08:43:16.532Z,13.97
2017-11-23T08:45:43.971Z,21.23
2017-11-23T08:48:11.516Z,15.67
2017-11-23T08:50:38.958Z,15.73
2017-11-23T08:53:06.431Z,14.50
2017-11-23T08:55:33.904Z,29.33
2017-11-23T08:58:01.399Z,31.43
2017-11-23T09:00:28.841Z,26.63
2017-11-23T09:02:56.312Z,16.93
2017-11-23T09:05:23.766Z,27.10
2017-11-23T09:07:51.250Z,31.10
2017-11-23T09:10:18.751Z,31.70
2017-11-23T09:12:46.274Z,25.40
2017-11-23T09:15:13.719Z,12.47
2017-11-23T09:17:41.148Z,12.00
2017-11-23T09:20:08.648Z,12.60
2017-11-23T09:22:36.120Z,13.17
2017-11-23T09:25:03.575Z,13.43
2017-11-23T09:27:31.015Z,13.60
2017-11-23T09:29:58.477Z,10.60
2017-11-23T09:32:26.031Z,20.37
2017-11-23T09:34:53.550Z,24.10
2017-11-23T09:37:20.997Z,12.00
2017-11-23T09:39:48.455Z,14.97
2017-11-23T09:42:15.970Z,12.47
2017-11-23T09:44:43.534Z,133.83
2017-11-23T09:47:10.971Z,109.97
2017-11-23T09:49:38.460Z,106.13
2017-11-23T09:52:05.900Z,59.63
2017-11-23T09:54:33.366Z,15.93
2017-11-23T09:57:00.822Z,20.17
2017-11-23T09:59:28.276Z,21.83
2017-11-23T10:01:55.735Z,15.57
2017-11-23T10:04:23.172Z,15.93
2017-11-23T10:06:50.637Z,13.07
2017-11-23T10:09:18.088Z,14.20
2017-11-23T10:11:45.543Z,17.40
2017-11-23T10:14:18.683Z,18.50
2017-11-23T10:16:46.151Z,12.60
2017-11-23T10:19:13.594Z,13.90
2017-11-23T10:21:41.062Z,15.37
2017-11-23T10:24:08.567Z,21.30
2017-11-23T10:26:36.048Z,14.57
2017-11-23T10:29:03.575Z,18.23
2017-11-23T10:31:31.030Z,17.40
2017-11-23T10:33:58.487Z,19.17
2017-11-23T10:36:25.923Z,14.47
2017-11-23T10:38:53.379Z,10.50
2017-11-23T10:41:20.824Z,7.17
2017-11-23T10:43:48.278Z,11.40
2017-11-23T10:46:15.732Z,11.07
2017-11-23T10:48:43.198Z,14.33
2017-11-23T10:51:10.639Z,12.03
2017-11-23T10:53:38.107Z,9.80
2017-11-23T10:56:05.603Z,9.40
2017-11-23T10:58:33.081Z,5.97
2017-11-23T11:01:00.574Z,3.73
2017-11-23T11:03:28.027Z,7.40
2017-11-23T11:05:55.519Z,2.73
2017-11-23T11:08:22.947Z,3.83
2017-11-23T11:10:50.407Z,4.03
2017-11-23T11:13:17.845Z,5.33
2017-11-23T11:15:45.301Z,4.27
2017-11-23T11:18:12.868Z,2.83
2017-11-23T11:20:40.330Z,2.23
2017-11-23T11:23:07.821Z,1.90
2017-11-23T11:25:35.289Z,2.83
2017-11-23T11:28:02.830Z,6.60
2017-11-23T11:30:30.294Z,3.13
2017-11-23T11:32:57.723Z,1.63
2017-11-23T11:35:25.191Z,1.93
2017-11-23T11:37:52.654Z,4.63
2017-11-23T11:40:20.215Z,2.60
2017-11-23T11:42:47.672Z,10.57
2017-11-23T11:45:15.106Z,3.50
2017-11-23T11:47:42.575Z,2.80
2017-11-23T11:50:10.027Z,1.90
2017-11-23T11:52:37.501Z,5.60
2017-11-23T11:55:04.953Z,2.40
2017-11-23T11:57:32.423Z,3.43
2017-11-23T11:59:59.863Z,5.10
2017-11-23T12:02:27.315Z,6.63
2017-11-23T12:04:54.771Z,8.37
2017-11-23T12:07:22.225Z,3.90
2017-11-23T12:09:49.661Z,4.07
2017-11-23T12:12:17.141Z,4.20
2017-11-23T12:14:44.581Z,4.73
2017-11-23T12:20:19.886Z,3.20
2017-11-23T12:23:04.026Z,3.57
2017-11-23T12:25:43.314Z,5.43
2017-11-23T12:31:12.487Z,4.13
2017-11-23T12:33:40.032Z,4.47
2017-11-23T12:36:07.471Z,4.43
2017-11-23T12:38:34.960Z,3.33
2017-11-23T12:41:02.399Z,2.87
2017-11-23T12:43:29.925Z,2.30
2017-11-23T12:45:57.388Z,4.13
2017-11-23T12:48:25.028Z,5.30
2017-11-23T12:50:52.554Z,4.50
2017-11-23T12:53:20.478Z,2.30
2017-11-23T12:55:47.951Z,12.23
2017-11-23T12:58:15.384Z,6.73
2017-11-23T13:00:42.842Z,3.40
2017-11-23T13:03:10.280Z,2.50
2017-11-23T13:05:37.737Z,3.00
2017-11-23T13:08:05.411Z,5.90
2017-11-23T13:10:32.897Z,2.03
2017-11-23T13:13:00.354Z,1.37
2017-11-23T13:15:27.832Z,1.80
2017-11-23T13:17:55.271Z,2.00
2017-11-23T13:20:25.144Z,2.43
2017-11-23T13:23:07.026Z,6.30
2017-11-23T13:25:41.579Z,6.10
2017-11-23T13:28:09.112Z,3.10
2017-11-23T13:30:36.592Z,2.60
2017-11-23T13:33:04.100Z,5.10
2017-11-23T13:40:48.106Z,7.63
2017-11-23T13:43:19.713Z,5.87
2017-11-23T13:45:47.631Z,5.47
2017-11-23T13:48:20.744Z,2.07
2017-11-23T13:50:48.491Z,2.50
2017-11-23T13:53:22.905Z,5.33
2017-11-23T13:55:58.654Z,2.30
2017-11-23T14:01:32.988Z,10.73
2017-11-23T14:04:04.805Z,5.60
2017-11-23T14:06:33.945Z,11.23
2017-11-23T14:09:01.495Z,8.93
2017-11-23T14:11:28.929Z,5.10
2017-11-23T14:13:56.412Z,6.90
2017-11-23T14:16:23.910Z,5.57
2017-11-23T14:18:51.467Z,4.60
2017-11-23T14:21:18.915Z,3.30
2017-11-23T14:23:46.497Z,12.13
2017-11-23T14:26:13.962Z,2.50
2017-11-23T14:28:41.523Z,15.93
2017-11-23T14:31:08.965Z,1.93
2017-11-23T14:33:36.409Z,4.70
2017-11-23T14:36:03.878Z,4.60
2017-11-23T14:38:31.330Z,4.10
2017-11-23T14:40:58.782Z,10.17
2017-11-23T14:43:26.218Z,2.23
2017-11-23T14:45:53.698Z,2.70
2017-11-23T14:48:21.135Z,4.97
2017-11-23T14:50:48.673Z,2.57
2017-11-23T14:53:16.109Z,2.97
2017-11-23T14:55:43.625Z,5.80
2017-11-23T14:58:11.075Z,6.63
2017-11-23T15:00:38.668Z,4.40
2017-11-23T15:03:06.136Z,5.67
2017-11-23T15:05:33.669Z,2.87
2017-11-23T15:08:01.230Z,9.37
2017-11-23T15:10:28.678Z,5.87
2017-11-23T15:12:56.141Z,14.30
2017-11-23T15:15:23.580Z,6.97
2017-11-23T15:17:51.078Z,5.00
2017-11-23T15:20:18.518Z,2.50
2017-11-23T15:22:46.063Z,3.07
2017-11-23T15:25:13.503Z,4.33
2017-11-23T15:27:40.934Z,2.60
2017-11-23T15:30:08.401Z,2.70
2017-11-23T15:32:35.838Z,2.63
2017-11-23T15:35:03.295Z,3.83
2017-11-23T15:37:30.801Z,3.47
2017-11-23T15:39:58.360Z,2.80
2017-11-23T15:42:25.828Z,2.93
2017-11-23T15:44:53.305Z,3.07
2017-11-23T15:47:20.768Z,2.60
2017-11-23T15:49:48.227Z,3.37
2017-11-23T15:52:15.738Z,3.33
2017-11-23T15:54:43.310Z,9.93
2017-11-23T15:57:10.752Z,2.80
2017-11-23T15:59:38.759Z,4.80
2017-11-23T16:02:06.301Z,6.13
2017-11-23T16:04:33.774Z,3.10
2017-11-23T16:07:01.299Z,4.93
2017-11-23T16:09:28.726Z,5.93
2017-11-23T16:11:56.182Z,5.17
2017-11-23T16:14:23.659Z,3.53
2017-11-23T16:16:51.121Z,9.90
2017-11-23T16:19:18.551Z,12.77
2017-11-23T16:21:46.062Z,3.43
2017-11-23T16:24:13.506Z,3.53
2017-11-23T16:26:41.061Z,4.10
2017-11-23T16:29:08.503Z,7.60
2017-11-23T16:31:35.974Z,3.60
2017-11-23T16:34:03.432Z,2.70
2017-11-23T16:36:33.318Z,2.90
2017-11-23T16:39:00.749Z,3.40
2017-11-23T16:41:28.555Z,6.83
2017-11-23T16:44:01.518Z,6.87
2017-11-23T16:46:34.610Z,6.30
2017-11-23T16:49:07.775Z,4.97
2017-11-23T16:54:41.671Z,3.77
2017-11-23T17:00:30.944Z,7.90
2017-11-23T17:03:03.986Z,4.80
2017-11-23T17:05:36.977Z,7.10
2017-11-23T17:11:37.511Z,3.93
2017-11-23T17:14:10.490Z,3.17
2017-11-23T17:16:49.551Z,4.67
2017-11-23T17:19:20.506Z,11.03
2017-11-23T17:21:48.000Z,5.73
2017-11-23T17:24:15.490Z,3.67
2017-11-23T17:26:42.943Z,4.50
2017-11-23T17:29:10.408Z,6.23
2017-11-23T17:31:37.895Z,3.93
2017-11-23T17:34:05.371Z,5.77
2017-11-23T17:36:32.842Z,5.90
2017-11-23T17:39:00.286Z,4.53
2017-11-23T17:41:27.747Z,3.63
2017-11-23T17:43:55.284Z,7.43
2017-11-23T17:46:22.760Z,4.30
2017-11-23T17:48:50.202Z,6.23
2017-11-23T17:51:17.662Z,2.33
2017-11-23T17:53:45.119Z,3.43
2017-11-23T17:56:12.599Z,2.23
2017-11-23T17:58:40.031Z,5.63
2017-11-23T18:01:07.502Z,4.80
2017-11-23T18:03:35.035Z,6.13
2017-11-23T18:06:02.720Z,6.00
2017-11-23T18:08:30.253Z,5.13
2017-11-23T18:10:57.723Z,6.57
2017-11-23T18:13:25.270Z,4.97
2017-11-23T18:15:52.703Z,3.53
2017-11-23T18:18:20.166Z,4.37
2017-11-23T18:20:47.597Z,3.03
2017-11-23T18:23:15.047Z,5.73
2017-11-23T18:25:42.527Z,4.20
2017-11-23T18:28:09.999Z,5.90
2017-11-23T18:30:37.440Z,3.30
2017-11-23T18:33:04.921Z,3.57
2017-11-23T18:35:32.362Z,3.83
2017-11-23T18:37:59.839Z,4.03
2017-11-23T18:40:27.296Z,4.20
2017-11-23T18:42:54.822Z,3.33
2017-11-23T18:45:22.255Z,5.50
2017-11-23T18:47:49.709Z,3.50
2017-11-23T18:50:17.224Z,3.17
2017-11-23T18:52:44.715Z,3.17
2017-11-23T18:55:12.157Z,3.03
2017-11-23T18:57:39.597Z,4.30
2017-11-23T19:00:07.076Z,3.13
2017-11-23T19:02:34.515Z,3.50
2017-11-23T19:05:01.985Z,5.00
2017-11-23T19:07:29.470Z,4.50
2017-11-23T19:09:57.148Z,3.70
2017-11-23T19:12:24.579Z,3.40
2017-11-23T19:14:52.030Z,4.53
2017-11-23T19:17:19.472Z,5.83
2017-11-23T19:23:07.873Z,3.33
2017-11-23T19:25:47.184Z,3.77
2017-11-23T19:28:18.761Z,6.70
2017-11-23T19:36:31.504Z,4.50
2017-11-23T19:38:59.006Z,11.40
2017-11-23T19:41:26.567Z,3.80
2017-11-23T19:43:54.027Z,9.27
2017-11-23T19:46:21.496Z,2.83
2017-11-23T19:48:49.030Z,5.10
2017-11-23T19:51:16.462Z,3.30
2017-11-23T19:53:43.952Z,3.47
2017-11-23T19:56:11.382Z,5.00
2017-11-23T19:58:38.949Z,3.67
2017-11-23T20:01:06.410Z,3.20
2017-11-23T20:03:33.899Z,5.00
2017-11-23T20:06:01.336Z,3.33
2017-11-23T20:08:28.795Z,2.77
2017-11-23T20:10:56.223Z,3.40
2017-11-23T20:13:23.720Z,3.93
2017-11-23T20:15:51.162Z,3.53
2017-11-23T20:18:37.423Z,9.43
2017-11-23T20:21:04.941Z,8.73
2017-11-23T20:23:32.470Z,3.37
2017-11-23T20:25:59.923Z,4.43
2017-11-23T20:28:27.351Z,9.13
2017-11-23T20:30:54.812Z,5.83
2017-11-23T20:33:22.293Z,6.30
2017-11-23T20:35:49.773Z,4.70
2017-11-23T20:38:17.219Z,2.80
2017-11-23T20:40:44.771Z,3.97
2017-11-23T20:43:12.223Z,3.10
2017-11-23T20:45:39.923Z,2.90
2017-11-23T20:48:07.355Z,2.90
2017-11-23T20:50:34.814Z,5.20
2017-11-23T20:53:02.244Z,3.37
2017-11-23T20:55:29.866Z,4.43
2017-11-23T20:57:57.323Z,4.67
2017-11-23T21:00:24.765Z,3.60
2017-11-23T21:02:52.224Z,7.90
2017-11-23T21:05:19.670Z,18.00
2017-11-23T21:07:47.124Z,6.40
2017-11-23T21:10:14.619Z,4.33
2017-11-23T21:12:42.107Z,9.47
2017-11-23T21:15:09.633Z,5.57
2017-11-23T21:17:37.102Z,10.00
2017-11-23T21:20:04.656Z,13.60
2017-11-23T21:22:32.143Z,6.47
2017-11-23T21:24:59.607Z,10.17
2017-11-23T21:27:27.161Z,15.33
2017-11-23T21:29:54.620Z,3.93
2017-11-23T21:32:22.057Z,3.90
2017-11-23T21:34:49.528Z,6.27
2017-11-23T21:37:16.963Z,5.43
2017-11-23T21:39:44.508Z,11.80
2017-11-23T21:42:11.942Z,5.13
2017-11-23T21:44:39.398Z,4.30
2017-11-23T21:47:06.842Z,5.23
2017-11-23T21:49:34.295Z,7.37
2017-11-23T21:52:01.832Z,6.20
2017-11-23T21:54:29.293Z,3.77
2017-11-23T21:56:56.742Z,3.77
2017-11-23T21:59:24.178Z,4.70
2017-11-23T22:01:51.630Z,3.60
2017-11-23T22:04:19.079Z,4.03
2017-11-23T22:06:46.579Z,3.27
2017-11-23T22:09:14.035Z,5.73
2017-11-23T22:11:41.495Z,4.10
2017-11-23T22:14:08.948Z,10.17
2017-11-23T22:16:36.405Z,3.80
2017-11-23T22:19:03.911Z,4.47
2017-11-23T22:21:31.375Z,5.53
2017-11-23T22:23:58.809Z,4.00
2017-11-23T22:26:26.266Z,3.93
2017-11-23T22:28:53.704Z,4.50
2017-11-23T22:31:21.136Z,3.83
2017-11-23T22:33:48.651Z,3.53
2017-11-23T22:36:16.082Z,5.00
2017-11-23T22:38:43.545Z,4.20
2017-11-23T22:41:11.005Z,4.30
2017-11-23T22:43:38.474Z,3.43
2017-11-23T22:46:05.971Z,6.07
2017-11-23T22:48:33.448Z,4.20
2017-11-23T22:51:00.906Z,3.27
2017-11-23T22:53:28.365Z,7.53
2017-11-23T22:55:55.803Z,11.97
2017-11-23T22:58:23.238Z,3.83
2017-11-23T23:00:50.695Z,4.27
2017-11-23T23:03:18.133Z,6.80
2017-11-23T23:05:45.587Z,3.87
2017-11-23T23:08:13.032Z,4.63
2017-11-23T23:10:40.498Z,3.43
2017-11-23T23:13:07.927Z,4.20
2017-11-23T23:15:35.414Z,4.43
2017-11-23T23:18:02.846Z,5.87
2017-11-23T23:20:30.308Z,6.63
2017-11-23T23:22:57.767Z,5.43
2017-11-23T23:25:25.206Z,3.80
2017-11-23T23:27:52.732Z,5.03
2017-11-23T23:30:20.195Z,5.07
2017-11-23T23:32:47.659Z,5.00
2017-11-23T23:35:15.095Z,4.73
2017-11-23T23:37:42.549Z,9.20
2017-11-23T23:40:09.982Z,7.63
2017-11-23T23:42:37.475Z,4.40
2017-11-23T23:45:04.911Z,5.80
2017-11-23T23:47:32.361Z,3.67
2017-11-23T23:49:59.822Z,4.90
2017-11-23T23:52:27.297Z,3.60
2017-11-23T23:54:54.769Z,5.17
2017-11-23T23:57:22.215Z,4.23
2017-11-23T23:59:49.672Z,5.37
